sensor_id;sensor_type;location;lat;lon;timestamp;temperature;humidity
7034;DHT22;3558;53.176;10.412;2024-02-21T03:46:25;13.90;89.40
7034;DHT22;3558;53.176;10.412;2024-02-21T03:48:51;13.90;89.50
7034;DHT22;3558;53.176;10.412;2024-02-21T03:51:16;13.80;89.40
7034;DHT22;3558;53.176;10.412;2024-02-21T03:53:42;13.90;89.40
7034;DHT22;3558;53.176;10.412;2024-02-21T03:56:07;13.90;89.40
7034;DHT22;3558;53.176;10.412;2024-02-21T03:58:33;13.90;89.40
7034;DHT22;3558;53.176;10.412;2024-02-21T04:01:02;13.90;89.40
7034;DHT22;3558;53.176;10.412;2024-02-21T04:03:28;13.90;89.40
7034;DHT22;3558;53.176;10.412;2024-02-21T04:05:53;13.90;89.40
7034;DHT22;3558;53.176;10.412;2024-02-21T04:08:19;13.90;89.40
7034;DHT22;3558;53.176;10.412;2024-02-21T04:10:45;13.90;89.40
7034;DHT22;3558;53.176;10.412;2024-02-21T04:13:10;13.90;89.40
7034;DHT22;3558;53.176;10.412;2024-02-21T04:15:35;13.90;89.40
7034;DHT22;3558;53.176;10.412;2024-02-21T04:18:02;13.90;89.50
7034;DHT22;3558;53.176;10.412;2024-02-21T04:20:28;13.90;89.50
7034;DHT22;3558;53.176;10.412;2024-02-21T04:22:54;13.90;89.40
7034;DHT22;3558;53.176;10.412;2024-02-21T04:25:19;13.90;89.50
7034;DHT22;3558;53.176;10.412;2024-02-21T04:27:45;13.90;89.50
7034;DHT22;3558;53.176;10.412;2024-02-21T04:30:11;13.90;89.50
7034;DHT22;3558;53.176;10.412;2024-02-21T04:32:37;13.90;89.50
7034;DHT22;3558;53.176;10.412;2024-02-21T04:35:03;13.90;89.50
7034;DHT22;3558;53.176;10.412;2024-02-21T04:37:28;13.80;89.40
7034;DHT22;3558;53.176;10.412;2024-02-21T04:39:54;13.90;89.50
7034;DHT22;3558;53.176;10.412;2024-02-21T04:42:19;13.90;89.50
7034;DHT22;3558;53.176;10.412;2024-02-21T04:44:45;13.90;89.50
7034;DHT22;3558;53.176;10.412;2024-02-21T04:47:10;13.90;89.60
7034;DHT22;3558;53.176;10.412;2024-02-21T04:49:36;13.90;89.60
7034;DHT22;3558;53.176;10.412;2024-02-21T04:52:01;13.90;89.60
7034;DHT22;3558;53.176;10.412;2024-02-21T04:54:27;13.90;89.50
7034;DHT22;3558;53.176;10.412;2024-02-21T04:56:52;13.90;89.60
7034;DHT22;3558;53.176;10.412;2024-02-21T04:59:18;13.90;89.60
7034;DHT22;3558;53.176;10.412;2024-02-21T05:01:44;13.90;89.60
7034;DHT22;3558;53.176;10.412;2024-02-21T05:04:09;13.90;89.60
7034;DHT22;3558;53.176;10.412;2024-02-21T05:06:38;13.90;89.60
7034;DHT22;3558;53.176;10.412;2024-02-21T05:09:04;13.90;89.60
7034;DHT22;3558;53.176;10.412;2024-02-21T05:11:30;13.80;89.60
7034;DHT22;3558;53.176;10.412;2024-02-21T05:13:56;13.90;89.60
7034;DHT22;3558;53.176;10.412;2024-02-21T05:16:21;13.90;89.70
7034;DHT22;3558;53.176;10.412;2024-02-21T05:18:47;13.90;89.70
7034;DHT22;3558;53.176;10.412;2024-02-21T05:21:13;13.90;89.70
7034;DHT22;3558;53.176;10.412;2024-02-21T05:23:38;13.90;89.60
7034;DHT22;3558;53.176;10.412;2024-02-21T05:26:05;13.80;89.60
7034;DHT22;3558;53.176;10.412;2024-02-21T05:28:30;13.90;89.70
7034;DHT22;3558;53.176;10.412;2024-02-21T05:30:56;13.90;89.70
7034;DHT22;3558;53.176;10.412;2024-02-21T05:33:21;13.80;89.60
7034;DHT22;3558;53.176;10.412;2024-02-21T05:35:47;13.80;89.60
7034;DHT22;3558;53.176;10.412;2024-02-21T05:38:16;13.80;89.60
7034;DHT22;3558;53.176;10.412;2024-02-21T05:40:42;13.90;89.70
7034;DHT22;3558;53.176;10.412;2024-02-21T05:43:08;13.90;89.70
7034;DHT22;3558;53.176;10.412;2024-02-21T05:45:34;13.90;89.70
7034;DHT22;3558;53.176;10.412;2024-02-21T05:47:59;13.90;89.70
7034;DHT22;3558;53.176;10.412;2024-02-21T05:50:25;13.90;89.60
7034;DHT22;3558;53.176;10.412;2024-02-21T05:52:52;13.90;89.60
7034;DHT22;3558;53.176;10.412;2024-02-21T05:55:18;13.90;89.70
7034;DHT22;3558;53.176;10.412;2024-02-21T05:57:43;13.90;89.70
7034;DHT22;3558;53.176;10.412;2024-02-21T06:00:09;13.90;89.80
7034;DHT22;3558;53.176;10.412;2024-02-21T06:02:35;13.90;89.70
7034;DHT22;3558;53.176;10.412;2024-02-21T06:05:00;13.90;89.70
7034;DHT22;3558;53.176;10.412;2024-02-21T06:07:26;13.90;89.80
7034;DHT22;3558;53.176;10.412;2024-02-21T06:09:51;13.90;89.80
7034;DHT22;3558;53.176;10.412;2024-02-21T06:12:17;13.90;89.80
7034;DHT22;3558;53.176;10.412;2024-02-21T06:14:42;13.90;89.80
7034;DHT22;3558;53.176;10.412;2024-02-21T06:17:08;13.90;89.80
7034;DHT22;3558;53.176;10.412;2024-02-21T06:19:33;13.90;89.90
7034;DHT22;3558;53.176;10.412;2024-02-21T06:21:59;13.80;89.80
7034;DHT22;3558;53.176;10.412;2024-02-21T06:24:24;13.90;89.90
7034;DHT22;3558;53.176;10.412;2024-02-21T06:26:50;13.80;89.90
7034;DHT22;3558;53.176;10.412;2024-02-21T06:29:15;13.90;90.00
7034;DHT22;3558;53.176;10.412;2024-02-21T06:31:41;13.90;89.90
7034;DHT22;3558;53.176;10.412;2024-02-21T06:34:06;13.80;89.80
7034;DHT22;3558;53.176;10.412;2024-02-21T06:36:32;13.90;89.90
7034;DHT22;3558;53.176;10.412;2024-02-21T06:38:58;13.90;89.90
7034;DHT22;3558;53.176;10.412;2024-02-21T06:41:23;13.80;89.80
7034;DHT22;3558;53.176;10.412;2024-02-21T06:43:49;13.90;90.00
7034;DHT22;3558;53.176;10.412;2024-02-21T06:46:27;13.80;89.90
7034;DHT22;3558;53.176;10.412;2024-02-21T06:48:58;13.80;89.90
7034;DHT22;3558;53.176;10.412;2024-02-21T06:51:23;13.80;89.90
7034;DHT22;3558;53.176;10.412;2024-02-21T06:53:50;13.90;90.00
7034;DHT22;3558;53.176;10.412;2024-02-21T06:56:15;13.90;90.00
7034;DHT22;3558;53.176;10.412;2024-02-21T06:58:41;13.90;90.00
7034;DHT22;3558;53.176;10.412;2024-02-21T07:01:07;13.80;90.00
7034;DHT22;3558;53.176;10.412;2024-02-21T07:03:33;13.90;90.00
7034;DHT22;3558;53.176;10.412;2024-02-21T07:05:58;13.90;90.00
7034;DHT22;3558;53.176;10.412;2024-02-21T07:08:24;13.80;90.00
7034;DHT22;3558;53.176;10.412;2024-02-21T07:10:49;13.80;90.00
7034;DHT22;3558;53.176;10.412;2024-02-21T07:13:15;13.90;90.00
7034;DHT22;3558;53.176;10.412;2024-02-21T07:15:41;13.90;90.00
7034;DHT22;3558;53.176;10.412;2024-02-21T07:18:07;13.90;90.00
7034;DHT22;3558;53.176;10.412;2024-02-21T07:20:32;13.90;90.00
7034;DHT22;3558;53.176;10.412;2024-02-21T07:23:03;13.90;90.00
7034;DHT22;3558;53.176;10.412;2024-02-21T07:25:29;13.90;90.00
7034;DHT22;3558;53.176;10.412;2024-02-21T07:27:54;13.90;90.00
7034;DHT22;3558;53.176;10.412;2024-02-21T07:30:19;13.90;90.00
7034;DHT22;3558;53.176;10.412;2024-02-21T07:32:45;13.80;90.00
7034;DHT22;3558;53.176;10.412;2024-02-21T07:35:10;13.90;90.10
7034;DHT22;3558;53.176;10.412;2024-02-21T07:37:37;13.90;90.10
7034;DHT22;3558;53.176;10.412;2024-02-21T07:40:05;13.90;90.10
7034;DHT22;3558;53.176;10.412;2024-02-21T07:42:31;13.90;90.10
7034;DHT22;3558;53.176;10.412;2024-02-21T07:44:56;13.90;90.10
7034;DHT22;3558;53.176;10.412;2024-02-21T07:47:22;13.90;90.10
7034;DHT22;3558;53.176;10.412;2024-02-21T07:49:47;13.90;90.10
7034;DHT22;3558;53.176;10.412;2024-02-21T07:52:14;13.90;90.10
7034;DHT22;3558;53.176;10.412;2024-02-21T07:54:40;13.90;90.10
7034;DHT22;3558;53.176;10.412;2024-02-21T07:57:06;13.90;90.10
7034;DHT22;3558;53.176;10.412;2024-02-21T07:59:32;13.90;90.20
7034;DHT22;3558;53.176;10.412;2024-02-21T08:01:58;13.90;90.20
7034;DHT22;3558;53.176;10.412;2024-02-21T08:04:23;13.90;90.20
7034;DHT22;3558;53.176;10.412;2024-02-21T08:06:53;13.90;90.20
7034;DHT22;3558;53.176;10.412;2024-02-21T08:09:19;13.90;90.20
7034;DHT22;3558;53.176;10.412;2024-02-21T08:11:45;14.00;90.30
7034;DHT22;3558;53.176;10.412;2024-02-21T08:14:10;14.00;90.50
7034;DHT22;3558;53.176;10.412;2024-02-21T08:16:36;14.00;90.30
7034;DHT22;3558;53.176;10.412;2024-02-21T08:19:01;14.00;90.30
7034;DHT22;3558;53.176;10.412;2024-02-21T08:21:29;14.00;90.30
7034;DHT22;3558;53.176;10.412;2024-02-21T08:23:55;14.10;90.40
7034;DHT22;3558;53.176;10.412;2024-02-21T08:26:20;14.00;90.30
7034;DHT22;3558;53.176;10.412;2024-02-21T08:28:46;14.00;90.40
7034;DHT22;3558;53.176;10.412;2024-02-21T08:31:18;14.00;90.30
7034;DHT22;3558;53.176;10.412;2024-02-21T08:33:44;14.10;90.40
7034;DHT22;3558;53.176;10.412;2024-02-21T08:36:09;14.10;90.40
7034;DHT22;3558;53.176;10.412;2024-02-21T08:38:42;14.10;90.40
7034;DHT22;3558;53.176;10.412;2024-02-21T08:41:07;14.10;90.50
7034;DHT22;3558;53.176;10.412;2024-02-21T08:43:33;14.10;90.50
7034;DHT22;3558;53.176;10.412;2024-02-21T08:46:00;14.20;90.70
7034;DHT22;3558;53.176;10.412;2024-02-21T08:48:25;14.10;90.50
7034;DHT22;3558;53.176;10.412;2024-02-21T08:50:51;14.20;90.50
7034;DHT22;3558;53.176;10.412;2024-02-21T08:53:16;14.20;90.50
7034;DHT22;3558;53.176;10.412;2024-02-21T08:55:42;14.20;90.50
7034;DHT22;3558;53.176;10.412;2024-02-21T08:58:09;14.30;90.50
7034;DHT22;3558;53.176;10.412;2024-02-21T09:00:35;14.30;90.50
7034;DHT22;3558;53.176;10.412;2024-02-21T09:03:00;14.30;90.50
7034;DHT22;3558;53.176;10.412;2024-02-21T09:05:26;14.30;90.50
7034;DHT22;3558;53.176;10.412;2024-02-21T09:07:51;14.40;90.50
7034;DHT22;3558;53.176;10.412;2024-02-21T09:10:17;14.40;90.50
7034;DHT22;3558;53.176;10.412;2024-02-21T09:12:42;14.40;90.50
7034;DHT22;3558;53.176;10.412;2024-02-21T09:15:09;14.40;90.50
7034;DHT22;3558;53.176;10.412;2024-02-21T09:17:35;14.50;90.50
7034;DHT22;3558;53.176;10.412;2024-02-21T09:20:01;14.50;90.50
7034;DHT22;3558;53.176;10.412;2024-02-21T09:22:29;14.50;90.50
7034;DHT22;3558;53.176;10.412;2024-02-21T09:24:54;14.40;90.50
7034;DHT22;3558;53.176;10.412;2024-02-21T09:27:20;14.50;90.60
7034;DHT22;3558;53.176;10.412;2024-02-21T09:29:46;14.50;90.60
7034;DHT22;3558;53.176;10.412;2024-02-21T09:32:11;14.50;90.60
7034;DHT22;3558;53.176;10.412;2024-02-21T09:34:37;14.50;90.60
7034;DHT22;3558;53.176;10.412;2024-02-21T09:37:03;14.60;90.60
7034;DHT22;3558;53.176;10.412;2024-02-21T09:39:28;14.60;90.60
7034;DHT22;3558;53.176;10.412;2024-02-21T09:41:59;14.60;90.70
7034;DHT22;3558;53.176;10.412;2024-02-21T09:44:32;14.60;90.70
7034;DHT22;3558;53.176;10.412;2024-02-21T09:47:10;14.60;90.60
7034;DHT22;3558;53.176;10.412;2024-02-21T09:49:40;14.60;90.70
7034;DHT22;3558;53.176;10.412;2024-02-21T09:52:07;14.60;90.70
7034;DHT22;3558;53.176;10.412;2024-02-21T09:54:33;14.60;90.70
7034;DHT22;3558;53.176;10.412;2024-02-21T09:57:03;14.60;90.80
7034;DHT22;3558;53.176;10.412;2024-02-21T09:59:31;14.60;90.70
7034;DHT22;3558;53.176;10.412;2024-02-21T10:01:56;14.60;90.70
7034;DHT22;3558;53.176;10.412;2024-02-21T10:04:22;14.60;90.80
7034;DHT22;3558;53.176;10.412;2024-02-21T10:06:48;14.60;90.80
7034;DHT22;3558;53.176;10.412;2024-02-21T10:09:27;14.60;90.80
7034;DHT22;3558;53.176;10.412;2024-02-21T10:11:54;14.60;90.70
7034;DHT22;3558;53.176;10.412;2024-02-21T10:14:20;14.60;90.70
7034;DHT22;3558;53.176;10.412;2024-02-21T10:16:56;14.60;90.70
7034;DHT22;3558;53.176;10.412;2024-02-21T10:19:24;14.60;90.70
7034;DHT22;3558;53.176;10.412;2024-02-21T10:22:07;14.60;90.70
7034;DHT22;3558;53.176;10.412;2024-02-21T10:24:33;14.60;90.60
7034;DHT22;3558;53.176;10.412;2024-02-21T10:27:09;14.60;90.70
7034;DHT22;3558;53.176;10.412;2024-02-21T10:29:36;14.60;90.70
7034;DHT22;3558;53.176;10.412;2024-02-21T10:32:13;14.60;90.70
7034;DHT22;3558;53.176;10.412;2024-02-21T10:34:40;14.60;90.70
7034;DHT22;3558;53.176;10.412;2024-02-21T10:37:07;14.60;90.80
7034;DHT22;3558;53.176;10.412;2024-02-21T10:39:34;14.70;90.70
7034;DHT22;3558;53.176;10.412;2024-02-21T10:42:01;14.60;90.70
7034;DHT22;3558;53.176;10.412;2024-02-21T10:44:40;14.70;90.70
7034;DHT22;3558;53.176;10.412;2024-02-21T10:47:10;14.70;90.70
7034;DHT22;3558;53.176;10.412;2024-02-21T10:49:40;14.70;90.70
7034;DHT22;3558;53.176;10.412;2024-02-21T10:52:48;14.70;90.70
7034;DHT22;3558;53.176;10.412;2024-02-21T10:55:21;14.70;90.80
7034;DHT22;3558;53.176;10.412;2024-02-21T10:57:52;14.70;90.80
7034;DHT22;3558;53.176;10.412;2024-02-21T11:00:18;14.70;90.80
7034;DHT22;3558;53.176;10.412;2024-02-21T11:02:46;14.70;90.70
7034;DHT22;3558;53.176;10.412;2024-02-21T11:05:12;14.80;90.70
7034;DHT22;3558;53.176;10.412;2024-02-21T11:07:39;14.80;90.70
7034;DHT22;3558;53.176;10.412;2024-02-21T11:10:06;14.80;90.70
7034;DHT22;3558;53.176;10.412;2024-02-21T11:12:45;14.80;90.70
7034;DHT22;3558;53.176;10.412;2024-02-21T11:15:11;14.70;90.70
7034;DHT22;3558;53.176;10.412;2024-02-21T11:17:37;14.80;90.70
7034;DHT22;3558;53.176;10.412;2024-02-21T11:20:13;14.80;90.70
7034;DHT22;3558;53.176;10.412;2024-02-21T11:22:44;14.80;90.60
7034;DHT22;3558;53.176;10.412;2024-02-21T11:25:10;14.80;90.60
7034;DHT22;3558;53.176;10.412;2024-02-21T11:27:38;14.80;90.60
7034;DHT22;3558;53.176;10.412;2024-02-21T11:30:05;14.80;90.60
7034;DHT22;3558;53.176;10.412;2024-02-21T11:32:31;14.90;90.60
7034;DHT22;3558;53.176;10.412;2024-02-21T11:35:00;14.80;90.50
7034;DHT22;3558;53.176;10.412;2024-02-21T11:37:27;14.80;90.50
7034;DHT22;3558;53.176;10.412;2024-02-21T11:39:54;14.90;90.50
7034;DHT22;3558;53.176;10.412;2024-02-21T11:42:20;14.80;90.50
7034;DHT22;3558;53.176;10.412;2024-02-21T11:44:45;14.80;90.40
7034;DHT22;3558;53.176;10.412;2024-02-21T11:47:11;14.90;90.40
7034;DHT22;3558;53.176;10.412;2024-02-21T11:49:47;14.80;90.40
7034;DHT22;3558;53.176;10.412;2024-02-21T11:52:22;14.80;90.40
7034;DHT22;3558;53.176;10.412;2024-02-21T11:54:50;14.90;90.40
7034;DHT22;3558;53.176;10.412;2024-02-21T11:57:17;14.90;90.30
7034;DHT22;3558;53.176;10.412;2024-02-21T11:59:44;14.90;90.30
7034;DHT22;3558;53.176;10.412;2024-02-21T12:02:10;14.90;90.50
7034;DHT22;3558;53.176;10.412;2024-02-21T12:04:36;14.90;90.30
7034;DHT22;3558;53.176;10.412;2024-02-21T12:07:01;14.80;90.30
7034;DHT22;3558;53.176;10.412;2024-02-21T12:09:29;14.90;90.30
7034;DHT22;3558;53.176;10.412;2024-02-21T12:12:02;14.90;90.30
7034;DHT22;3558;53.176;10.412;2024-02-21T12:14:33;14.90;90.30
7034;DHT22;3558;53.176;10.412;2024-02-21T12:16:59;14.90;90.30
7034;DHT22;3558;53.176;10.412;2024-02-21T12:19:25;14.90;90.30
7034;DHT22;3558;53.176;10.412;2024-02-21T12:21:51;14.90;90.30
7034;DHT22;3558;53.176;10.412;2024-02-21T12:24:27;14.80;90.30
7034;DHT22;3558;53.176;10.412;2024-02-21T12:26:53;14.90;90.30
7034;DHT22;3558;53.176;10.412;2024-02-21T12:29:23;14.80;90.30
7034;DHT22;3558;53.176;10.412;2024-02-21T12:31:50;14.90;90.40
7034;DHT22;3558;53.176;10.412;2024-02-21T12:34:16;14.80;90.30
7034;DHT22;3558;53.176;10.412;2024-02-21T12:36:43;14.90;90.30
7034;DHT22;3558;53.176;10.412;2024-02-21T12:39:12;14.90;90.30
7034;DHT22;3558;53.176;10.412;2024-02-21T12:41:38;14.90;90.30
7034;DHT22;3558;53.176;10.412;2024-02-21T12:44:04;14.90;90.30
7034;DHT22;3558;53.176;10.412;2024-02-21T12:46:35;14.90;90.30
7034;DHT22;3558;53.176;10.412;2024-02-21T12:49:01;14.90;90.30
7034;DHT22;3558;53.176;10.412;2024-02-21T12:51:28;15.00;90.30
7034;DHT22;3558;53.176;10.412;2024-02-21T12:53:53;15.00;90.30
7034;DHT22;3558;53.176;10.412;2024-02-21T12:56:19;14.90;90.20
7034;DHT22;3558;53.176;10.412;2024-02-21T12:58:45;15.00;90.30
7034;DHT22;3558;53.176;10.412;2024-02-21T13:01:11;15.00;90.20
7034;DHT22;3558;53.176;10.412;2024-02-21T13:03:36;14.90;90.20
7034;DHT22;3558;53.176;10.412;2024-02-21T13:06:02;14.90;90.10
7034;DHT22;3558;53.176;10.412;2024-02-21T13:08:28;15.00;90.20
7034;DHT22;3558;53.176;10.412;2024-02-21T13:10:53;15.00;90.10
7034;DHT22;3558;53.176;10.412;2024-02-21T13:13:19;15.00;90.10
7034;DHT22;3558;53.176;10.412;2024-02-21T13:15:44;15.00;90.10
7034;DHT22;3558;53.176;10.412;2024-02-21T13:18:10;15.00;90.10
7034;DHT22;3558;53.176;10.412;2024-02-21T13:20:36;15.00;90.10
7034;DHT22;3558;53.176;10.412;2024-02-21T13:23:02;15.00;90.00
7034;DHT22;3558;53.176;10.412;2024-02-21T13:25:28;15.00;90.00
7034;DHT22;3558;53.176;10.412;2024-02-21T13:27:53;15.10;90.10
7034;DHT22;3558;53.176;10.412;2024-02-21T13:30:19;15.00;90.00
7034;DHT22;3558;53.176;10.412;2024-02-21T13:32:45;15.10;90.00
7034;DHT22;3558;53.176;10.412;2024-02-21T13:35:13;15.10;90.00
7034;DHT22;3558;53.176;10.412;2024-02-21T13:37:40;15.10;90.00
7034;DHT22;3558;53.176;10.412;2024-02-21T13:40:07;15.10;90.00
7034;DHT22;3558;53.176;10.412;2024-02-21T13:42:34;15.10;90.00
7034;DHT22;3558;53.176;10.412;2024-02-21T13:45:00;15.10;90.00
7034;DHT22;3558;53.176;10.412;2024-02-21T13:47:26;15.10;90.00
7034;DHT22;3558;53.176;10.412;2024-02-21T13:49:51;15.10;90.00
7034;DHT22;3558;53.176;10.412;2024-02-21T13:52:17;15.10;90.00
7034;DHT22;3558;53.176;10.412;2024-02-21T13:54:45;15.10;89.80
7034;DHT22;3558;53.176;10.412;2024-02-21T13:57:10;15.10;89.80
7034;DHT22;3558;53.176;10.412;2024-02-21T13:59:36;15.20;89.70
7034;DHT22;3558;53.176;10.412;2024-02-21T14:02:01;15.20;89.60
7034;DHT22;3558;53.176;10.412;2024-02-21T14:04:27;15.20;89.60
7034;DHT22;3558;53.176;10.412;2024-02-21T14:06:52;15.20;89.60
7034;DHT22;3558;53.176;10.412;2024-02-21T14:09:19;15.20;90.00
7034;DHT22;3558;53.176;10.412;2024-02-21T14:11:44;15.20;89.50
7034;DHT22;3558;53.176;10.412;2024-02-21T14:14:10;15.20;89.40
7034;DHT22;3558;53.176;10.412;2024-02-21T14:16:36;15.20;89.40
7034;DHT22;3558;53.176;10.412;2024-02-21T14:19:01;15.20;89.20
7034;DHT22;3558;53.176;10.412;2024-02-21T14:21:27;15.20;89.10
7034;DHT22;3558;53.176;10.412;2024-02-21T14:23:54;15.20;89.10
7034;DHT22;3558;53.176;10.412;2024-02-21T14:26:19;15.20;89.10
7034;DHT22;3558;53.176;10.412;2024-02-21T14:28:45;15.30;89.10
7034;DHT22;3558;53.176;10.412;2024-02-21T14:31:11;15.30;89.20
7034;DHT22;3558;53.176;10.412;2024-02-21T14:33:37;15.30;89.10
7034;DHT22;3558;53.176;10.412;2024-02-21T14:36:03;15.30;89.00
7034;DHT22;3558;53.176;10.412;2024-02-21T14:38:29;15.30;88.90
7034;DHT22;3558;53.176;10.412;2024-02-21T14:40:54;15.30;88.90
7034;DHT22;3558;53.176;10.412;2024-02-21T14:43:20;15.30;88.90
7034;DHT22;3558;53.176;10.412;2024-02-21T14:45:49;15.30;88.70
7034;DHT22;3558;53.176;10.412;2024-02-21T14:48:14;15.30;88.70
7034;DHT22;3558;53.176;10.412;2024-02-21T14:50:40;15.40;88.70
7034;DHT22;3558;53.176;10.412;2024-02-21T14:53:06;15.40;88.50
7034;DHT22;3558;53.176;10.412;2024-02-21T14:55:33;15.40;88.30
7034;DHT22;3558;53.176;10.412;2024-02-21T14:57:59;15.40;88.30
7034;DHT22;3558;53.176;10.412;2024-02-21T15:00:26;15.40;88.30
7034;DHT22;3558;53.176;10.412;2024-02-21T15:02:59;15.30;88.30
7034;DHT22;3558;53.176;10.412;2024-02-21T15:05:24;15.40;88.30
7034;DHT22;3558;53.176;10.412;2024-02-21T15:07:51;15.40;88.20
7034;DHT22;3558;53.176;10.412;2024-02-21T15:10:17;15.30;87.90
7034;DHT22;3558;53.176;10.412;2024-02-21T15:12:46;15.40;87.80
7034;DHT22;3558;53.176;10.412;2024-02-21T15:15:12;15.40;87.70
7034;DHT22;3558;53.176;10.412;2024-02-21T15:17:37;15.40;87.70
7034;DHT22;3558;53.176;10.412;2024-02-21T15:20:03;15.40;87.50
7034;DHT22;3558;53.176;10.412;2024-02-21T15:22:33;15.40;87.50
7034;DHT22;3558;53.176;10.412;2024-02-21T15:24:58;15.30;87.40
7034;DHT22;3558;53.176;10.412;2024-02-21T15:27:25;15.40;87.50
7034;DHT22;3558;53.176;10.412;2024-02-21T15:29:51;15.30;87.50
7034;DHT22;3558;53.176;10.412;2024-02-21T15:32:17;15.30;87.40
7034;DHT22;3558;53.176;10.412;2024-02-21T15:34:43;15.40;87.50
7034;DHT22;3558;53.176;10.412;2024-02-21T15:37:09;15.30;87.60
7034;DHT22;3558;53.176;10.412;2024-02-21T15:39:36;15.30;87.70
7034;DHT22;3558;53.176;10.412;2024-02-21T15:42:01;15.30;87.60
7034;DHT22;3558;53.176;10.412;2024-02-21T15:44:27;15.30;87.60
7034;DHT22;3558;53.176;10.412;2024-02-21T15:46:52;15.30;87.60
7034;DHT22;3558;53.176;10.412;2024-02-21T15:49:18;15.30;87.60
7034;DHT22;3558;53.176;10.412;2024-02-21T15:51:44;15.30;87.50
7034;DHT22;3558;53.176;10.412;2024-02-21T15:54:09;15.30;87.50
7034;DHT22;3558;53.176;10.412;2024-02-21T15:56:35;15.30;87.60
7034;DHT22;3558;53.176;10.412;2024-02-21T15:59:01;15.30;87.80
7034;DHT22;3558;53.176;10.412;2024-02-21T16:01:26;15.30;87.70
7034;DHT22;3558;53.176;10.412;2024-02-21T16:03:53;15.30;87.50
7034;DHT22;3558;53.176;10.412;2024-02-21T16:06:21;15.20;87.50
7034;DHT22;3558;53.176;10.412;2024-02-21T16:08:46;15.30;87.40
7034;DHT22;3558;53.176;10.412;2024-02-21T16:11:15;15.20;87.40
7034;DHT22;3558;53.176;10.412;2024-02-21T16:13:42;15.20;87.30
7034;DHT22;3558;53.176;10.412;2024-02-21T16:16:11;15.20;87.50
7034;DHT22;3558;53.176;10.412;2024-02-21T16:18:36;15.20;88.00
7034;DHT22;3558;53.176;10.412;2024-02-21T16:21:02;15.20;88.10
7034;DHT22;3558;53.176;10.412;2024-02-21T16:23:27;15.10;88.10
7034;DHT22;3558;53.176;10.412;2024-02-21T16:25:53;15.10;88.30
7034;DHT22;3558;53.176;10.412;2024-02-21T16:28:18;15.10;88.40
7034;DHT22;3558;53.176;10.412;2024-02-21T16:30:44;15.10;88.40
7034;DHT22;3558;53.176;10.412;2024-02-21T16:33:09;15.10;88.50
7034;DHT22;3558;53.176;10.412;2024-02-21T16:35:38;15.10;88.60
7034;DHT22;3558;53.176;10.412;2024-02-21T16:38:04;15.00;88.50
7034;DHT22;3558;53.176;10.412;2024-02-21T16:40:30;15.00;88.40
7034;DHT22;3558;53.176;10.412;2024-02-21T16:42:56;15.00;88.30
7034;DHT22;3558;53.176;10.412;2024-02-21T16:45:24;15.00;88.10
7034;DHT22;3558;53.176;10.412;2024-02-21T16:47:49;15.00;88.20
7034;DHT22;3558;53.176;10.412;2024-02-21T16:50:15;15.00;88.30
7034;DHT22;3558;53.176;10.412;2024-02-21T16:52:40;15.00;88.50
7034;DHT22;3558;53.176;10.412;2024-02-21T16:55:07;15.00;88.50
7034;DHT22;3558;53.176;10.412;2024-02-21T16:57:33;15.00;88.60
7034;DHT22;3558;53.176;10.412;2024-02-21T16:59:59;14.90;88.50
7034;DHT22;3558;53.176;10.412;2024-02-21T17:02:24;14.90;88.50
7034;DHT22;3558;53.176;10.412;2024-02-21T17:04:50;14.90;88.50
7034;DHT22;3558;53.176;10.412;2024-02-21T17:07:17;14.90;88.40
7034;DHT22;3558;53.176;10.412;2024-02-21T17:09:42;14.90;88.40
7034;DHT22;3558;53.176;10.412;2024-02-21T17:12:08;14.90;88.50
7034;DHT22;3558;53.176;10.412;2024-02-21T17:14:33;14.90;88.50
7034;DHT22;3558;53.176;10.412;2024-02-21T17:17:00;14.80;88.20
7034;DHT22;3558;53.176;10.412;2024-02-21T17:19:25;14.80;88.30
7034;DHT22;3558;53.176;10.412;2024-02-21T17:21:51;14.80;88.30
7034;DHT22;3558;53.176;10.412;2024-02-21T17:24:16;14.80;88.30
7034;DHT22;3558;53.176;10.412;2024-02-21T17:26:42;14.80;88.40
7034;DHT22;3558;53.176;10.412;2024-02-21T17:29:08;14.80;88.30
7034;DHT22;3558;53.176;10.412;2024-02-21T17:31:33;14.70;88.30
7034;DHT22;3558;53.176;10.412;2024-02-21T17:33:59;14.80;88.20
7034;DHT22;3558;53.176;10.412;2024-02-21T17:36:24;14.80;88.20
7034;DHT22;3558;53.176;10.412;2024-02-21T17:38:50;14.70;88.20
7034;DHT22;3558;53.176;10.412;2024-02-21T17:41:17;14.70;88.10
7034;DHT22;3558;53.176;10.412;2024-02-21T17:43:43;14.70;88.00
7034;DHT22;3558;53.176;10.412;2024-02-21T17:46:10;14.70;88.00
7034;DHT22;3558;53.176;10.412;2024-02-21T17:48:36;14.70;88.00
7034;DHT22;3558;53.176;10.412;2024-02-21T17:51:01;14.60;87.80
7034;DHT22;3558;53.176;10.412;2024-02-21T17:53:27;14.60;87.80
7034;DHT22;3558;53.176;10.412;2024-02-21T17:55:57;14.60;87.80
7034;DHT22;3558;53.176;10.412;2024-02-21T17:58:23;14.60;87.70
7034;DHT22;3558;53.176;10.412;2024-02-21T18:00:48;14.60;87.70
7034;DHT22;3558;53.176;10.412;2024-02-21T18:03:14;14.60;87.70
7034;DHT22;3558;53.176;10.412;2024-02-21T18:05:42;14.60;87.70
7034;DHT22;3558;53.176;10.412;2024-02-21T18:08:09;14.50;87.90
7034;DHT22;3558;53.176;10.412;2024-02-21T18:10:35;14.60;87.70
7034;DHT22;3558;53.176;10.412;2024-02-21T18:13:06;14.60;87.60
7034;DHT22;3558;53.176;10.412;2024-02-21T18:15:33;14.50;87.60
7034;DHT22;3558;53.176;10.412;2024-02-21T18:17:59;14.50;87.50
7034;DHT22;3558;53.176;10.412;2024-02-21T18:20:24;14.50;87.50
7034;DHT22;3558;53.176;10.412;2024-02-21T18:22:50;14.50;87.50
7034;DHT22;3558;53.176;10.412;2024-02-21T18:25:16;14.50;87.30
7034;DHT22;3558;53.176;10.412;2024-02-21T18:27:43;14.40;87.30
7034;DHT22;3558;53.176;10.412;2024-02-21T18:30:09;14.50;87.40
7034;DHT22;3558;53.176;10.412;2024-02-21T18:32:34;14.40;87.20
7034;DHT22;3558;53.176;10.412;2024-02-21T18:35:00;14.40;87.20
7034;DHT22;3558;53.176;10.412;2024-02-21T18:37:25;14.40;87.20
7034;DHT22;3558;53.176;10.412;2024-02-21T18:39:51;14.40;87.20
7034;DHT22;3558;53.176;10.412;2024-02-21T18:42:17;14.30;87.10
7034;DHT22;3558;53.176;10.412;2024-02-21T18:44:42;14.30;87.10
7034;DHT22;3558;53.176;10.412;2024-02-21T18:47:10;14.30;87.10
7034;DHT22;3558;53.176;10.412;2024-02-21T18:49:37;14.30;86.90
7034;DHT22;3558;53.176;10.412;2024-02-21T18:52:03;14.30;86.90
7034;DHT22;3558;53.176;10.412;2024-02-21T18:54:28;14.30;87.00
7034;DHT22;3558;53.176;10.412;2024-02-21T18:56:54;14.30;87.00
7034;DHT22;3558;53.176;10.412;2024-02-21T18:59:19;14.30;87.00
7034;DHT22;3558;53.176;10.412;2024-02-21T19:01:45;14.30;87.00
7034;DHT22;3558;53.176;10.412;2024-02-21T19:04:10;14.30;86.80
7034;DHT22;3558;53.176;10.412;2024-02-21T19:06:35;14.20;86.80
7034;DHT22;3558;53.176;10.412;2024-02-21T19:09:03;14.30;86.80
7034;DHT22;3558;53.176;10.412;2024-02-21T19:11:29;14.20;86.70
7034;DHT22;3558;53.176;10.412;2024-02-21T19:13:55;14.20;86.60
7034;DHT22;3558;53.176;10.412;2024-02-21T19:16:20;14.20;86.70
7034;DHT22;3558;53.176;10.412;2024-02-21T19:18:46;14.20;86.70
7034;DHT22;3558;53.176;10.412;2024-02-21T19:21:13;14.20;86.60
7034;DHT22;3558;53.176;10.412;2024-02-21T19:23:38;14.20;86.60
7034;DHT22;3558;53.176;10.412;2024-02-21T19:26:07;14.20;86.60